Time;durP1;ratioP1;P1;durP2;ratioP2;P2;SDS_P1;SDS_P2;PMS_P1;PMS_P2;Temp;Humidity;BMP_temperature;BMP_pressure;BME280_temperature;BME280_humidity;BME280_pressure;Samples;Min_cycle;Max_cycle;Signal;HPM_P1;HPM_P2
2023/03/04 00:01:56;;;;;;;;;;;;;;;;;;5034206;28;7235;-49
2023/03/04 00:04:21;;;;;;;;;;;;;;;;;;5034308;28;7067;-52
2023/03/04 00:06:47;;;;;;;;;;;;;;;;;;5034749;28;7065;-49
2023/03/04 00:09:45;;;;;;;;;;;;;;;;;;5035059;28;7217;-51
2023/03/04 00:12:12;;;;;;;;;;;;;;;;;;5034262;28;7367;-54
2023/03/04 00:14:37;;;;;;;;;;;;;;;;;;5034217;28;7227;-52
2023/03/04 00:17:46;;;;;;;;;;;;;;;;;;5034673;28;7233;-51
2023/03/04 00:20:11;;;;;;;;;;;;;;;;;;5034546;28;7162;-52
2023/03/04 00:25:40;;;;;;;;;;;;;;;;;;5037432;28;6697;-51
2023/03/04 00:28:06;;;;;;;;;;;;;;;;;;5037369;28;7030;-49
2023/03/04 00:30:31;;;;;;;;;;;;;;;;;;5038211;28;7340;-49
2023/03/04 00:32:57;;;;;;;;;;;;;;;;;;5020645;28;8440;-53
2023/03/04 00:35:22;;;;;;;;;;;;;;;;;;5038307;28;7067;-49
2023/03/04 00:37:48;;;;;;;;;;;;;;;;;;5019519;28;7201;-52
2023/03/04 00:40:13;;;;;;;;;;;;;;;;;;5037300;28;7123;-51
2023/03/04 00:42:39;;;;;;;;;;;;;;;;;;5036901;28;6896;-53
2023/03/04 00:45:05;;;;;;;;;;;;;;;;;;5033113;28;7711;-49
2023/03/04 00:47:39;;;;;;;;;;;;;;;;;;5036847;28;6942;-52
2023/03/04 00:50:04;;;;;;;;;;;;;;;;;;5037108;28;7146;-52
2023/03/04 00:55:19;;;;;;;;;;;;;;;;;;5037354;28;6825;-52
2023/03/04 00:57:44;;;;;;;;;;;;;;;;;;5037087;28;7180;-52
2023/03/04 01:00:10;;;;;;;;;;;;;;;;;;5036664;28;7014;-50
2023/03/04 01:05:47;;;;;;;;;;;;;;;;;;5036559;28;6908;-52
2023/03/04 01:08:12;;;;;;;;;;;;;;;;;;5036766;28;7182;-55
2023/03/04 01:10:38;;;;;;;;;;;;;;;;;;5036748;28;6916;-48
2023/03/04 01:13:04;;;;;;;;;;;;;;;;;;5036740;28;7125;-50
2023/03/04 01:15:40;;;;;;;;;;;;;;;;;;5036592;28;7191;-49
2023/03/04 01:18:06;;;;;;;;;;;;;;;;;;5036673;28;7066;-49
2023/03/04 01:20:32;;;;;;;;;;;;;;;;;;5036531;28;7165;-51
2023/03/04 01:23:18;;;;;;;;;;;;;;;;;;5036471;28;7187;-49
2023/03/04 01:25:43;;;;;;;;;;;;;;;;;;5036417;28;7246;-52
2023/03/04 01:28:34;;;;;;;;;;;;;;;;;;5036107;28;7012;-49
2023/03/04 01:31:01;;;;;;;;;;;;;;;;;;5036713;28;7036;-50
2023/03/04 01:33:27;;;;;;;;;;;;;;;;;;5037190;28;7155;-52
2023/03/04 01:35:52;;;;;;;;;;;;;;;;;;5036870;28;7165;-50
2023/03/04 01:38:18;;;;;;;;;;;;;;;;;;5036275;28;7244;-49
2023/03/04 01:40:59;;;;;;;;;;;;;;;;;;5036181;28;6919;-50
2023/03/04 01:43:26;;;;;;;;;;;;;;;;;;5036075;28;7032;-49
2023/03/04 01:46:26;;;;;;;;;;;;;;;;;;5036028;28;6971;-56
2023/03/04 01:48:52;;;;;;;;;;;;;;;;;;5035654;28;7216;-51
2023/03/04 01:51:19;;;;;;;;;;;;;;;;;;5035980;28;6967;-52
2023/03/04 01:53:53;;;;;;;;;;;;;;;;;;5035877;28;6943;-51
2023/03/04 01:56:19;;;;;;;;;;;;;;;;;;5035644;28;6960;-50
2023/03/04 01:59:03;;;;;;;;;;;;;;;;;;5035859;28;7143;-48
2023/03/04 02:02:05;;;;;;;;;;;;;;;;;;5036199;28;6839;-49
2023/03/04 02:04:33;;;;;;;;;;;;;;;;;;4975026;28;7257;-49
2023/03/04 02:07:00;;;;;;;;;;;;;;;;;;4974318;28;8024;-48
2023/03/04 02:09:48;;;;;;;;;;;;;;;;;;4961327;28;7377;-50
2023/03/04 02:12:13;;;;;;;;;;;;;;;;;;4970368;28;7192;-51
2023/03/04 02:15:05;;;;;;;;;;;;;;;;;;4974660;28;7121;-51
2023/03/04 02:17:32;;;;;;;;;;;;;;;;;;4974522;28;7340;-49
2023/03/04 02:19:57;;;;;;;;;;;;;;;;;;4974600;28;7230;-49
2023/03/04 02:22:48;;;;;;;;;;;;;;;;;;4974451;28;7134;-50
2023/03/04 02:25:21;;;;;;;;;;;;;;;;;;4975290;28;7413;-49
2023/03/04 02:27:46;;;;;;;;;;;;;;;;;;4974388;28;7207;-51
2023/03/04 02:33:17;;;;;;;;;;;;;;;;;;4974540;28;6924;-49
2023/03/04 02:36:05;;;;;;;;;;;;;;;;;;4975165;28;7025;-49
2023/03/04 02:38:32;;;;;;;;;;;;;;;;;;5005418;28;7002;-50
2023/03/04 02:53:09;;;;;;;;;;;;;;;;;;5034951;28;7003;-50
2023/03/04 02:58:39;;;;;;;;;;;;;;;;;;5034759;28;7414;-49
2023/03/04 03:01:05;;;;;;;;;;;;;;;;;;5035221;28;6852;-51
2023/03/04 03:06:33;;;;;;;;;;;;;;;;;;5034418;28;6847;-49
2023/03/04 03:08:59;;;;;;;;;;;;;;;;;;5035302;28;7161;-49
2023/03/04 03:17:30;;;;;;;;;;;;;;;;;;5034717;28;7033;-49
2023/03/04 03:19:55;;;;;;;;;;;;;;;;;;5034944;28;7418;-50
2023/03/04 03:22:45;;;;;;;;;;;;;;;;;;5034517;28;6946;-50
2023/03/04 03:25:12;;;;;;;;;;;;;;;;;;5034294;28;7368;-48
2023/03/04 03:27:38;;;;;;;;;;;;;;;;;;5035616;28;7121;-50
2023/03/04 03:30:24;;;;;;;;;;;;;;;;;;5034616;28;7073;-54
2023/03/04 03:32:49;;;;;;;;;;;;;;;;;;5034210;28;6921;-50
2023/03/04 03:35:29;;;;;;;;;;;;;;;;;;5034847;28;7205;-48
2023/03/04 03:37:54;;;;;;;;;;;;;;;;;;5034516;28;7018;-49
2023/03/04 03:40:20;;;;;;;;;;;;;;;;;;5034605;28;6999;-49
2023/03/04 03:43:19;;;;;;;;;;;;;;;;;;5017328;28;7126;-50
2023/03/04 03:45:44;;;;;;;;;;;;;;;;;;5034327;28;7418;-49
2023/03/04 03:48:10;;;;;;;;;;;;;;;;;;5034326;28;6948;-48
2023/03/04 03:50:35;;;;;;;;;;;;;;;;;;5034746;28;7600;-52
2023/03/04 03:53:01;;;;;;;;;;;;;;;;;;5034289;28;7169;-50
2023/03/04 03:56:01;;;;;;;;;;;;;;;;;;5035159;28;7240;-51
2023/03/04 03:58:27;;;;;;;;;;;;;;;;;;5038082;28;7120;-49
2023/03/04 04:01:12;;;;;;;;;;;;;;;;;;5038053;28;7157;-51
2023/03/04 04:03:38;;;;;;;;;;;;;;;;;;5037848;28;7939;-48
2023/03/04 04:06:15;;;;;;;;;;;;;;;;;;5038422;28;7675;-48
2023/03/04 04:11:43;;;;;;;;;;;;;;;;;;5037562;28;6932;-49
2023/03/04 04:14:12;;;;;;;;;;;;;;;;;;5037922;28;7391;-49
2023/03/04 04:16:38;;;;;;;;;;;;;;;;;;5037766;28;7187;-51
2023/03/04 04:19:04;;;;;;;;;;;;;;;;;;5037965;28;7394;-48
2023/03/04 04:21:43;;;;;;;;;;;;;;;;;;5019936;28;8378;-51
2023/03/04 04:24:08;;;;;;;;;;;;;;;;;;5037660;28;7065;-48
2023/03/04 04:26:34;;;;;;;;;;;;;;;;;;5038376;28;7127;-53
2023/03/04 04:35:05;;;;;;;;;;;;;;;;;;5037208;28;6956;-49
2023/03/04 04:37:36;;;;;;;;;;;;;;;;;;5037130;28;7298;-51
2023/03/04 04:40:03;;;;;;;;;;;;;;;;;;5037353;28;6932;-48
2023/03/04 04:42:28;;;;;;;;;;;;;;;;;;5037284;28;7452;-49
2023/03/04 04:44:55;;;;;;;;;;;;;;;;;;5036803;28;7185;-50
2023/03/04 04:47:21;;;;;;;;;;;;;;;;;;5037194;28;7169;-51
2023/03/04 04:52:55;;;;;;;;;;;;;;;;;;5036843;28;6681;-51
2023/03/04 04:55:56;;;;;;;;;;;;;;;;;;5037101;28;7414;-47
2023/03/04 04:58:22;;;;;;;;;;;;;;;;;;5037102;28;7008;-49
2023/03/04 05:01:07;;;;;;;;;;;;;;;;;;5037584;28;7118;-48
2023/03/04 05:03:34;;;;;;;;;;;;;;;;;;5036870;28;7070;-53
2023/03/04 05:06:12;;;;;;;;;;;;;;;;;;5036381;28;7097;-50
2023/03/04 05:08:37;;;;;;;;;;;;;;;;;;5036325;28;7409;-50
2023/03/04 05:11:06;;;;;;;;;;;;;;;;;;5036867;28;7173;-50
2023/03/04 05:13:31;;;;;;;;;;;;;;;;;;5036595;28;7211;-48
2023/03/04 05:15:57;;;;;;;;;;;;;;;;;;5036651;28;7164;-48
2023/03/04 05:21:25;;;;;;;;;;;;;;;;;;5036396;28;6820;-51
2023/03/04 05:24:21;;;;;;;;;;;;;;;;;;5036178;28;6995;-50
2023/03/04 05:26:46;;;;;;;;;;;;;;;;;;5036647;28;7932;-48
2023/03/04 05:35:17;;;;;;;;;;;;;;;;;;5036153;28;6917;-53
2023/03/04 05:37:43;;;;;;;;;;;;;;;;;;5035902;28;7084;-51
2023/03/04 05:40:09;;;;;;;;;;;;;;;;;;5036160;28;7201;-49
2023/03/04 05:42:34;;;;;;;;;;;;;;;;;;5036809;28;6785;-52
2023/03/04 05:45:00;;;;;;;;;;;;;;;;;;5030952;28;6931;-49
2023/03/04 05:47:38;;;;;;;;;;;;;;;;;;5035770;28;6907;-48
2023/03/04 05:50:04;;;;;;;;;;;;;;;;;;5035622;28;6908;-51
2023/03/04 05:52:29;;;;;;;;;;;;;;;;;;5035949;28;6942;-51
2023/03/04 05:54:55;;;;;;;;;;;;;;;;;;5035883;28;7389;-52
2023/03/04 05:57:20;;;;;;;;;;;;;;;;;;5035592;28;6961;-50
2023/03/04 06:02:49;;;;;;;;;;;;;;;;;;5035531;28;6685;-49
2023/03/04 06:05:15;;;;;;;;;;;;;;;;;;5035722;28;7550;-50
2023/03/04 06:08:12;;;;;;;;;;;;;;;;;;5035921;28;7397;-49
2023/03/04 06:10:39;;;;;;;;;;;;;;;;;;5035310;28;7180;-50
2023/03/04 06:13:05;;;;;;;;;;;;;;;;;;5035231;28;6925;-49
2023/03/04 06:15:50;;;;;;;;;;;;;;;;;;5035592;28;7039;-50
2023/03/04 06:18:16;;;;;;;;;;;;;;;;;;5034717;28;6956;-51
2023/03/04 06:20:44;;;;;;;;;;;;;;;;;;5035688;28;7050;-48
2023/03/04 06:23:10;;;;;;;;;;;;;;;;;;5035029;28;8127;-49
2023/03/04 06:25:36;;;;;;;;;;;;;;;;;;5035622;28;7188;-49
2023/03/04 06:28:18;;;;;;;;;;;;;;;;;;5035262;28;7255;-51
2023/03/04 06:30:44;;;;;;;;;;;;;;;;;;5035236;28;7631;-48
2023/03/04 06:36:12;;;;;;;;;;;;;;;;;;5035084;28;6689;-49
2023/03/04 06:41:40;;;;;;;;;;;;;;;;;;5034840;28;6920;-48
2023/03/04 06:44:06;;;;;;;;;;;;;;;;;;5033478;28;7021;-48
2023/03/04 06:46:32;;;;;;;;;;;;;;;;;;5035027;28;7139;-49
2023/03/04 06:49:09;;;;;;;;;;;;;;;;;;5035069;28;6945;-50
2023/03/04 06:51:35;;;;;;;;;;;;;;;;;;5017729;28;8800;-49
2023/03/04 06:54:00;;;;;;;;;;;;;;;;;;5034801;28;7200;-54
2023/03/04 06:56:26;;;;;;;;;;;;;;;;;;5034926;28;7228;-51
2023/03/04 06:59:03;;;;;;;;;;;;;;;;;;5034939;28;7200;-51
2023/03/04 07:01:29;;;;;;;;;;;;;;;;;;5034522;28;6938;-57
2023/03/04 07:03:57;;;;;;;;;;;;;;;;;;5179902;23;7172;-57
2023/03/04 07:06:24;;;;;;;;;;;;;;;;;;5035343;28;7319;-57
2023/03/04 07:14:55;;;;;;;;;;;;;;;;;;5034554;28;6679;-56
2023/03/04 07:20:24;;;;;;;;;;;;;;;;;;5034456;28;6928;-56
2023/03/04 07:26:08;;;;;;;;;;;;;;;;;;5034469;28;6686;-57
2023/03/04 07:28:35;;;;;;;;;;;;;;;;;;5034583;28;7038;-58
2023/03/04 07:31:09;;;;;;;;;;;;;;;;;;5037913;28;7131;-57
2023/03/04 07:33:55;;;;;;;;;;;;;;;;;;5038515;28;6980;-57
2023/03/04 07:36:21;;;;;;;;;;;;;;;;;;5038515;28;6813;-56
2023/03/04 07:38:55;;;;;;;;;;;;;;;;;;5038744;28;7143;-57
2023/03/04 07:41:22;;;;;;;;;;;;;;;;;;5020447;28;7164;-57
2023/03/04 07:43:47;;;;;;;;;;;;;;;;;;5018651;28;7013;-57
2023/03/04 07:49:15;;;;;;;;;;;;;;;;;;5018410;28;6923;-57
2023/03/04 07:54:48;;;;;;;;;;;;;;;;;;5206604;23;6788;-61
2023/03/04 08:00:40;;;;;;;;;;;;;;;;;;5037878;28;6939;-61
2023/03/04 08:03:05;;;;;;;;;;;;;;;;;;5037752;28;7371;-61
2023/03/04 08:05:31;;;;;;;;;;;;;;;;;;5038619;28;6922;-61
2023/03/04 08:08:31;;;;;;;;;;;;;;;;;;5038715;28;7361;-60
2023/03/04 08:10:56;;;;;;;;;;;;;;;;;;5037645;28;6952;-60
2023/03/04 08:16:16;;;;;;;;;;;;;;;;;;5037992;28;8531;-60
2023/03/04 08:21:56;;;;;;;;;;;;;;;;;;5037380;28;7397;-61
2023/03/04 08:24:21;;;;;;;;;;;;;;;;;;5037710;28;7138;-61
2023/03/04 08:26:49;;;;;;;;;;;;;;;;;;5037393;28;7079;-61
2023/03/04 08:29:17;;;;;;;;;;;;;;;;;;5037228;28;6989;-62
2023/03/04 08:31:47;;;;;;;;;;;;;;;;;;5036316;28;7293;-62
2023/03/04 08:34:13;;;;;;;;;;;;;;;;;;5037184;28;7364;-62
2023/03/04 08:37:15;;;;;;;;;;;;;;;;;;5037479;28;7037;-62
2023/03/04 08:39:40;;;;;;;;;;;;;;;;;;5031042;28;7029;-54
2023/03/04 08:42:08;;;;;;;;;;;;;;;;;;5036217;28;7282;-50
2023/03/04 08:44:33;;;;;;;;;;;;;;;;;;5037036;28;7162;-52
2023/03/04 08:47:11;;;;;;;;;;;;;;;;;;5037249;28;7330;-50
2023/03/04 08:50:02;;;;;;;;;;;;;;;;;;5037074;28;6979;-56
2023/03/04 08:52:29;;;;;;;;;;;;;;;;;;5037240;28;7181;-50
2023/03/04 08:54:55;;;;;;;;;;;;;;;;;;5036379;28;6965;-52
2023/03/04 08:57:21;;;;;;;;;;;;;;;;;;5036706;28;8191;-56
2023/03/04 08:59:48;;;;;;;;;;;;;;;;;;5028158;28;6976;-58
2023/03/04 09:02:17;;;;;;;;;;;;;;;;;;4997438;28;7105;-58
2023/03/04 09:04:54;;;;;;;;;;;;;;;;;;5010506;28;7244;-57
2023/03/04 09:07:20;;;;;;;;;;;;;;;;;;5007651;28;7021;-57
2023/03/04 09:09:45;;;;;;;;;;;;;;;;;;5016280;28;7168;-55
2023/03/04 09:12:23;;;;;;;;;;;;;;;;;;5016822;28;7146;-53
2023/03/04 09:14:48;;;;;;;;;;;;;;;;;;5015682;28;8481;-53
2023/03/04 09:17:14;;;;;;;;;;;;;;;;;;5017175;28;6906;-54
2023/03/04 09:22:47;;;;;;;;;;;;;;;;;;5016581;28;6678;-57
2023/03/04 09:25:16;;;;;;;;;;;;;;;;;;5016496;28;6952;-57
2023/03/04 09:27:52;;;;;;;;;;;;;;;;;;5022801;28;7092;-57
2023/03/04 09:30:18;;;;;;;;;;;;;;;;;;5032219;28;7157;-57
2023/03/04 09:35:57;;;;;;;;;;;;;;;;;;5036097;28;6698;-58
2023/03/04 09:38:23;;;;;;;;;;;;;;;;;;5036195;28;7065;-58
2023/03/04 09:40:49;;;;;;;;;;;;;;;;;;5036277;28;7020;-57
2023/03/04 09:43:20;;;;;;;;;;;;;;;;;;5036044;28;7176;-57
2023/03/04 09:46:02;;;;;;;;;;;;;;;;;;5036185;28;7062;-58
2023/03/04 09:48:35;;;;;;;;;;;;;;;;;;5036063;28;7336;-58
2023/03/04 09:54:09;;;;;;;;;;;;;;;;;;5035768;28;6889;-58
2023/03/04 09:56:39;;;;;;;;;;;;;;;;;;5035043;28;7256;-59
2023/03/04 10:02:41;;;;;;;;;;;;;;;;;;4975003;28;7207;-57
2023/03/04 10:05:12;;;;;;;;;;;;;;;;;;4974846;28;7234;-57
2023/03/04 10:07:48;;;;;;;;;;;;;;;;;;4974997;28;7138;-57
2023/03/04 10:13:35;;;;;;;;;;;;;;;;;;4974405;28;7054;-57
2023/03/04 10:16:04;;;;;;;;;;;;;;;;;;4974738;28;7042;-55
2023/03/04 10:18:43;;;;;;;;;;;;;;;;;;4974820;28;7081;-56
2023/03/04 10:21:36;;;;;;;;;;;;;;;;;;4974893;28;7051;-56
2023/03/04 10:24:11;;;;;;;;;;;;;;;;;;4971619;28;7448;-57
2023/03/04 10:29:56;;;;;;;;;;;;;;;;;;4974667;28;6959;-55
2023/03/04 10:32:21;;;;;;;;;;;;;;;;;;4990605;28;7062;-54
2023/03/04 10:35:06;;;;;;;;;;;;;;;;;;5035243;28;6923;-58
2023/03/04 10:37:49;;;;;;;;;;;;;;;;;;5034924;28;7173;-56
2023/03/04 10:40:48;;;;;;;;;;;;;;;;;;5035436;28;7218;-55
2023/03/04 10:43:15;;;;;;;;;;;;;;;;;;5035816;28;7067;-53
2023/03/04 10:46:11;;;;;;;;;;;;;;;;;;5034469;28;7276;-56
2023/03/04 10:48:39;;;;;;;;;;;;;;;;;;5034978;28;7097;-55
2023/03/04 10:54:26;;;;;;;;;;;;;;;;;;5034658;28;6905;-55
2023/03/04 10:56:57;;;;;;;;;;;;;;;;;;5035080;28;7154;-56
2023/03/04 10:59:34;;;;;;;;;;;;;;;;;;5033505;28;7253;-56
2023/03/04 11:02:00;;;;;;;;;;;;;;;;;;5035117;28;7226;-55
2023/03/04 11:04:40;;;;;;;;;;;;;;;;;;5033915;28;7207;-51
2023/03/04 11:07:09;;;;;;;;;;;;;;;;;;5034927;28;7061;-56
2023/03/04 11:09:36;;;;;;;;;;;;;;;;;;5034437;28;7166;-54
2023/03/04 11:12:09;;;;;;;;;;;;;;;;;;5034742;28;7096;-55
2023/03/04 11:15:02;;;;;;;;;;;;;;;;;;5034438;28;7165;-59
2023/03/04 11:17:47;;;;;;;;;;;;;;;;;;5035563;28;7037;-58
2023/03/04 11:20:25;;;;;;;;;;;;;;;;;;5034606;28;7034;-58
2023/03/04 11:22:54;;;;;;;;;;;;;;;;;;5034295;28;7127;-58
2023/03/04 11:38:05;;;;;;;;;;;;;;;;;;5034274;28;6678;-59
2023/03/04 11:40:34;;;;;;;;;;;;;;;;;;5034066;28;6925;-59
2023/03/04 11:43:12;;;;;;;;;;;;;;;;;;5034427;28;7054;-59
2023/03/04 11:48:58;;;;;;;;;;;;;;;;;;5034196;28;6685;-59
2023/03/04 11:54:56;;;;;;;;;;;;;;;;;;5034225;28;6748;-58
2023/03/04 12:06:43;;;;;;;;;;;;;;;;;;4995008;28;6933;-58
2023/03/04 12:09:11;;;;;;;;;;;;;;;;;;5106347;22;6995;-58
2023/03/04 12:18:04;;;;;;;;;;;;;;;;;;5016840;28;7089;-58
2023/03/04 12:20:48;;;;;;;;;;;;;;;;;;5017782;28;6942;-58
2023/03/04 12:26:26;;;;;;;;;;;;;;;;;;5017847;28;6698;-58
2023/03/04 12:29:06;;;;;;;;;;;;;;;;;;5018295;28;7223;-58
2023/03/04 12:31:31;;;;;;;;;;;;;;;;;;5018350;28;7184;-58
2023/03/04 12:37:00;;;;;;;;;;;;;;;;;;5017609;28;6679;-58
2023/03/04 12:39:46;;;;;;;;;;;;;;;;;;5017468;28;7214;-58
2023/03/04 12:45:12;;;;;;;;;;;;;;;;;;4999880;28;6793;-59
2023/03/04 12:47:40;;;;;;;;;;;;;;;;;;4998379;28;7151;-59
2023/03/04 12:50:24;;;;;;;;;;;;;;;;;;4997658;28;7091;-58
2023/03/04 12:52:55;;;;;;;;;;;;;;;;;;4997763;28;7209;-58
2023/03/04 12:58:29;;;;;;;;;;;;;;;;;;4997561;28;7034;-58
2023/03/04 13:01:14;;;;;;;;;;;;;;;;;;4997749;28;7414;-58
2023/03/04 13:03:47;;;;;;;;;;;;;;;;;;4997396;28;7075;-57
2023/03/04 13:06:25;;;;;;;;;;;;;;;;;;4997619;28;7445;-58
2023/03/04 13:09:22;;;;;;;;;;;;;;;;;;5000039;28;7345;-57
2023/03/04 13:11:47;;;;;;;;;;;;;;;;;;4997252;28;7364;-58
2023/03/04 13:14:13;;;;;;;;;;;;;;;;;;4997303;28;7416;-58
2023/03/04 13:16:45;;;;;;;;;;;;;;;;;;4997666;28;7211;-58
2023/03/04 13:19:29;;;;;;;;;;;;;;;;;;4997295;28;7301;-57
2023/03/04 13:25:20;;;;;;;;;;;;;;;;;;4996908;28;6694;-58
2023/03/04 13:28:05;;;;;;;;;;;;;;;;;;4988479;28;7131;-58
2023/03/04 13:30:31;;;;;;;;;;;;;;;;;;4996775;28;6958;-58
2023/03/04 13:32:58;;;;;;;;;;;;;;;;;;4996982;28;7037;-58
2023/03/04 13:35:41;;;;;;;;;;;;;;;;;;4996979;28;7187;-58
2023/03/04 13:38:35;;;;;;;;;;;;;;;;;;4996991;28;7113;-58
2023/03/04 13:41:03;;;;;;;;;;;;;;;;;;5009889;28;7195;-58
2023/03/04 13:44:01;;;;;;;;;;;;;;;;;;5016366;28;7178;-57
2023/03/04 13:46:26;;;;;;;;;;;;;;;;;;5016409;28;7217;-58
2023/03/04 13:48:51;;;;;;;;;;;;;;;;;;5016183;28;7132;-58
2023/03/04 13:54:22;;;;;;;;;;;;;;;;;;5016114;28;6930;-58
2023/03/04 13:59:56;;;;;;;;;;;;;;;;;;5016540;28;6909;-58
2023/03/04 14:02:24;;;;;;;;;;;;;;;;;;5015743;28;7203;-57
2023/03/04 14:05:02;;;;;;;;;;;;;;;;;;5016415;28;7117;-58
2023/03/04 14:07:30;;;;;;;;;;;;;;;;;;5016026;28;7302;-58
2023/03/04 14:10:03;;;;;;;;;;;;;;;;;;5010430;28;7214;-57
2023/03/04 14:15:34;;;;;;;;;;;;;;;;;;5015629;28;6690;-58
2023/03/04 14:18:04;;;;;;;;;;;;;;;;;;5015780;28;7027;-56
2023/03/04 14:20:36;;;;;;;;;;;;;;;;;;5015800;28;7210;-58
2023/03/04 14:26:12;;;;;;;;;;;;;;;;;;5014194;28;6944;-57
2023/03/04 14:28:48;;;;;;;;;;;;;;;;;;5015372;28;7077;-57
2023/03/04 14:31:28;;;;;;;;;;;;;;;;;;5015707;28;7065;-57
2023/03/04 14:34:00;;;;;;;;;;;;;;;;;;5015078;28;6955;-55
2023/03/04 14:36:49;;;;;;;;;;;;;;;;;;5015525;28;6938;-58
2023/03/04 14:39:17;;;;;;;;;;;;;;;;;;5014613;28;7149;-58
2023/03/04 14:41:47;;;;;;;;;;;;;;;;;;5015289;28;6949;-56
2023/03/04 14:44:16;;;;;;;;;;;;;;;;;;5014377;28;7060;-58
2023/03/04 14:49:43;;;;;;;;;;;;;;;;;;4995526;28;7079;-57
2023/03/04 14:52:28;;;;;;;;;;;;;;;;;;4995569;28;7015;-56
2023/03/04 15:01:35;;;;;;;;;;;;;;;;;;5001935;28;6733;-58
2023/03/04 15:10:11;;;;;;;;;;;;;;;;;;5009156;28;6925;-58
2023/03/04 15:13:02;;;;;;;;;;;;;;;;;;5014582;28;7211;-57
2023/03/04 15:15:38;;;;;;;;;;;;;;;;;;5015317;28;7170;-54
2023/03/04 15:18:25;;;;;;;;;;;;;;;;;;5015066;28;7212;-57
2023/03/04 15:24:06;;;;;;;;;;;;;;;;;;5014697;28;6969;-57
2023/03/04 15:26:33;;;;;;;;;;;;;;;;;;5014420;28;7099;-56
2023/03/04 15:28:58;;;;;;;;;;;;;;;;;;5008368;28;7101;-56
2023/03/04 15:31:53;;;;;;;;;;;;;;;;;;4995205;28;7012;-53
2023/03/04 15:34:20;;;;;;;;;;;;;;;;;;5011614;28;7172;-56
2023/03/04 15:36:48;;;;;;;;;;;;;;;;;;5014414;28;7765;-53
2023/03/04 15:39:16;;;;;;;;;;;;;;;;;;5014644;28;6974;-54
2023/03/04 15:41:49;;;;;;;;;;;;;;;;;;5015221;28;6985;-55
2023/03/04 15:44:15;;;;;;;;;;;;;;;;;;5014453;28;6946;-54
2023/03/04 15:46:40;;;;;;;;;;;;;;;;;;5014386;28;7004;-56
2023/03/04 15:49:06;;;;;;;;;;;;;;;;;;5015316;28;6925;-52
2023/03/04 15:52:08;;;;;;;;;;;;;;;;;;5016596;28;7201;-55
2023/03/04 15:54:45;;;;;;;;;;;;;;;;;;5018723;28;7214;-56
2023/03/04 15:57:23;;;;;;;;;;;;;;;;;;5018449;28;7200;-57
2023/03/04 15:59:48;;;;;;;;;;;;;;;;;;5018440;28;7181;-55
2023/03/04 16:02:26;;;;;;;;;;;;;;;;;;5018001;28;6995;-57
2023/03/04 16:04:52;;;;;;;;;;;;;;;;;;5018288;28;7247;-55
2023/03/04 16:07:37;;;;;;;;;;;;;;;;;;5018304;28;6954;-54
2023/03/04 16:13:12;;;;;;;;;;;;;;;;;;5017989;28;6701;-56
2023/03/04 16:15:44;;;;;;;;;;;;;;;;;;5018106;28;7212;-55
2023/03/04 16:18:10;;;;;;;;;;;;;;;;;;5018137;28;7008;-54
2023/03/04 16:20:37;;;;;;;;;;;;;;;;;;5018071;28;7127;-56
2023/03/04 16:23:14;;;;;;;;;;;;;;;;;;5017915;28;7394;-57
2023/03/04 16:25:45;;;;;;;;;;;;;;;;;;5018749;28;7109;-57
2023/03/04 16:28:12;;;;;;;;;;;;;;;;;;5017581;28;7381;-54
2023/03/04 16:30:37;;;;;;;;;;;;;;;;;;5017805;28;7219;-57
2023/03/04 16:33:03;;;;;;;;;;;;;;;;;;5017808;28;6923;-54
2023/03/04 16:35:38;;;;;;;;;;;;;;;;;;5017710;28;7391;-56
2023/03/04 16:38:05;;;;;;;;;;;;;;;;;;5017707;28;7059;-55
2023/03/04 16:40:31;;;;;;;;;;;;;;;;;;5017665;28;7157;-55
2023/03/04 16:43:08;;;;;;;;;;;;;;;;;;5017556;28;7203;-55
2023/03/04 16:45:35;;;;;;;;;;;;;;;;;;5017480;28;7135;-57
2023/03/04 16:48:01;;;;;;;;;;;;;;;;;;5017521;28;7168;-54
2023/03/04 16:50:38;;;;;;;;;;;;;;;;;;5000103;28;8390;-56
2023/03/04 16:53:04;;;;;;;;;;;;;;;;;;5017590;28;7058;-55
2023/03/04 16:56:02;;;;;;;;;;;;;;;;;;5018257;28;7244;-57
2023/03/04 16:58:28;;;;;;;;;;;;;;;;;;5018117;28;7696;-54
2023/03/04 17:00:54;;;;;;;;;;;;;;;;;;5017348;28;7130;-56
2023/03/04 17:03:19;;;;;;;;;;;;;;;;;;5016164;28;7016;-54
2023/03/04 17:05:46;;;;;;;;;;;;;;;;;;5004717;28;7254;-56
2023/03/04 17:08:35;;;;;;;;;;;;;;;;;;4997462;28;7158;-56
2023/03/04 17:11:00;;;;;;;;;;;;;;;;;;4997372;28;8339;-53
2023/03/04 17:13:44;;;;;;;;;;;;;;;;;;4997336;28;7140;-56
2023/03/04 17:16:11;;;;;;;;;;;;;;;;;;4997080;28;7248;-55
2023/03/04 17:21:52;;;;;;;;;;;;;;;;;;4997168;28;6681;-55
2023/03/04 17:24:17;;;;;;;;;;;;;;;;;;4997169;28;7283;-55
2023/03/04 17:26:50;;;;;;;;;;;;;;;;;;4996908;28;7205;-55
2023/03/04 17:29:17;;;;;;;;;;;;;;;;;;4997089;28;7142;-57
2023/03/04 17:31:42;;;;;;;;;;;;;;;;;;4997053;28;7172;-56
2023/03/04 17:34:08;;;;;;;;;;;;;;;;;;4996798;28;7193;-56
2023/03/04 17:36:34;;;;;;;;;;;;;;;;;;4997012;28;7395;-55
2023/03/04 17:39:01;;;;;;;;;;;;;;;;;;4996171;28;8443;-55
2023/03/04 17:44:56;;;;;;;;;;;;;;;;;;4996611;28;6996;-54
2023/03/04 17:47:22;;;;;;;;;;;;;;;;;;4996811;28;7172;-56
2023/03/04 17:49:47;;;;;;;;;;;;;;;;;;5014902;28;7157;-54
2023/03/04 17:52:13;;;;;;;;;;;;;;;;;;5016310;28;6982;-53
2023/03/04 17:54:39;;;;;;;;;;;;;;;;;;5016296;28;8267;-55
2023/03/04 17:57:10;;;;;;;;;;;;;;;;;;5016278;28;7142;-52
2023/03/04 17:59:36;;;;;;;;;;;;;;;;;;5015861;28;7028;-54
2023/03/04 18:02:35;;;;;;;;;;;;;;;;;;5015944;28;8026;-54
2023/03/04 18:08:00;;;;;;;;;;;;;;;;;;4997315;28;7037;-54
2023/03/04 18:10:25;;;;;;;;;;;;;;;;;;5006002;28;7277;-55
2023/03/04 18:13:00;;;;;;;;;;;;;;;;;;5016717;28;7290;-56
2023/03/04 18:15:26;;;;;;;;;;;;;;;;;;5000584;28;7470;-56
2023/03/04 18:20:56;;;;;;;;;;;;;;;;;;4995944;28;6960;-52
2023/03/04 18:23:21;;;;;;;;;;;;;;;;;;4996038;28;7190;-54
2023/03/04 18:25:53;;;;;;;;;;;;;;;;;;4979426;28;7368;-54
2023/03/04 18:28:18;;;;;;;;;;;;;;;;;;4996947;28;7739;-55
2023/03/04 18:31:00;;;;;;;;;;;;;;;;;;4996796;28;7110;-57
2023/03/04 18:33:26;;;;;;;;;;;;;;;;;;4995875;28;7162;-56
2023/03/04 18:36:00;;;;;;;;;;;;;;;;;;4996233;28;7965;-56
2023/03/04 18:41:27;;;;;;;;;;;;;;;;;;4995655;28;6920;-55
2023/03/04 18:46:48;;;;;;;;;;;;;;;;;;5010890;28;7469;-56
2023/03/04 18:49:14;;;;;;;;;;;;;;;;;;5015552;28;7027;-54
2023/03/04 18:52:01;;;;;;;;;;;;;;;;;;5014795;28;6919;-54
2023/03/04 18:54:27;;;;;;;;;;;;;;;;;;5014880;28;6956;-51
2023/03/04 18:56:56;;;;;;;;;;;;;;;;;;5015238;28;7142;-55
2023/03/04 19:02:36;;;;;;;;;;;;;;;;;;5014881;28;6977;-55
2023/03/04 19:08:05;;;;;;;;;;;;;;;;;;5014714;28;6673;-55
2023/03/04 19:13:34;;;;;;;;;;;;;;;;;;4995105;28;6976;-54
2023/03/04 19:16:22;;;;;;;;;;;;;;;;;;4995488;28;6955;-56
2023/03/04 19:18:48;;;;;;;;;;;;;;;;;;4995913;28;7155;-55
2023/03/04 19:21:13;;;;;;;;;;;;;;;;;;4996226;28;7040;-57
2023/03/04 19:23:40;;;;;;;;;;;;;;;;;;4994320;28;8403;-55
2023/03/04 19:26:07;;;;;;;;;;;;;;;;;;4996929;28;7188;-53
2023/03/04 19:28:33;;;;;;;;;;;;;;;;;;4999286;28;7383;-56
2023/03/04 19:31:22;;;;;;;;;;;;;;;;;;4999289;28;7083;-51
2023/03/04 19:33:48;;;;;;;;;;;;;;;;;;4999482;28;7538;-56
2023/03/04 19:36:13;;;;;;;;;;;;;;;;;;4999305;28;7338;-53
2023/03/04 19:38:39;;;;;;;;;;;;;;;;;;4999079;28;7246;-52
2023/03/04 19:41:12;;;;;;;;;;;;;;;;;;4999276;28;7016;-54
2023/03/04 19:46:43;;;;;;;;;;;;;;;;;;5013208;28;6693;-55
2023/03/04 19:49:09;;;;;;;;;;;;;;;;;;5018565;28;7144;-51
2023/03/04 19:54:37;;;;;;;;;;;;;;;;;;5018353;28;6756;-55
2023/03/04 19:57:03;;;;;;;;;;;;;;;;;;5018403;28;7345;-50
2023/03/04 19:59:28;;;;;;;;;;;;;;;;;;5018397;28;7099;-55
2023/03/04 20:04:57;;;;;;;;;;;;;;;;;;5018089;28;6916;-54
2023/03/04 20:07:34;;;;;;;;;;;;;;;;;;5018954;28;6971;-55
2023/03/04 20:13:07;;;;;;;;;;;;;;;;;;5018065;28;6741;-51
2023/03/04 20:15:33;;;;;;;;;;;;;;;;;;5018059;28;7189;-52
2023/03/04 20:20:50;;;;;;;;;;;;;;;;;;5018401;28;6976;-56
2023/03/04 20:23:36;;;;;;;;;;;;;;;;;;5017891;28;7122;-55
2023/03/04 20:26:03;;;;;;;;;;;;;;;;;;5017912;28;7354;-55
2023/03/04 20:28:30;;;;;;;;;;;;;;;;;;5017981;28;6948;-55
2023/03/04 20:31:16;;;;;;;;;;;;;;;;;;5017856;28;6945;-50
2023/03/04 20:33:43;;;;;;;;;;;;;;;;;;5017773;28;7211;-55
2023/03/04 20:36:08;;;;;;;;;;;;;;;;;;5017775;28;7181;-56
2023/03/04 20:38:34;;;;;;;;;;;;;;;;;;5016661;28;7125;-55
2023/03/04 20:40:59;;;;;;;;;;;;;;;;;;5017679;28;7118;-52
2023/03/04 20:43:27;;;;;;;;;;;;;;;;;;5017638;28;7309;-53
2023/03/04 20:45:53;;;;;;;;;;;;;;;;;;5017277;28;7009;-55
2023/03/04 20:48:23;;;;;;;;;;;;;;;;;;5017610;28;7106;-55
2023/03/04 20:50:49;;;;;;;;;;;;;;;;;;5016138;28;7247;-53
2023/03/04 20:53:28;;;;;;;;;;;;;;;;;;5018307;28;7401;-53
2023/03/04 20:55:54;;;;;;;;;;;;;;;;;;5017394;28;6961;-54
2023/03/04 20:58:21;;;;;;;;;;;;;;;;;;5017348;28;7150;-54
2023/03/04 21:00:50;;;;;;;;;;;;;;;;;;5017889;28;7000;-53
2023/03/04 21:03:15;;;;;;;;;;;;;;;;;;5017281;28;7141;-55
2023/03/04 21:08:43;;;;;;;;;;;;;;;;;;5016892;28;7029;-54
2023/03/04 21:11:11;;;;;;;;;;;;;;;;;;5017305;28;7048;-53
2023/03/04 21:13:39;;;;;;;;;;;;;;;;;;5017197;28;7019;-52
2023/03/04 21:16:35;;;;;;;;;;;;;;;;;;5016995;28;7380;-52
2023/03/04 21:19:00;;;;;;;;;;;;;;;;;;5017114;28;7347;-54
2023/03/04 21:21:28;;;;;;;;;;;;;;;;;;5016633;28;7260;-54
2023/03/04 21:24:12;;;;;;;;;;;;;;;;;;5017008;28;7158;-54
2023/03/04 21:26:38;;;;;;;;;;;;;;;;;;5016841;28;7191;-52
2023/03/04 21:29:20;;;;;;;;;;;;;;;;;;5016448;28;7334;-55
2023/03/04 21:31:49;;;;;;;;;;;;;;;;;;5016549;28;7441;-52
2023/03/04 21:34:36;;;;;;;;;;;;;;;;;;5016390;28;7281;-55
2023/03/04 21:37:02;;;;;;;;;;;;;;;;;;5016541;28;7181;-55
2023/03/04 21:39:30;;;;;;;;;;;;;;;;;;5016946;28;7334;-54
2023/03/04 21:41:57;;;;;;;;;;;;;;;;;;5016566;28;6937;-55